sensor_id;sensor_type;location;lat;lon;timestamp;temperature;humidity
83146;DHT22;73037;51.110;4.706;2024-02-15T00:00:12;12.70;83.10
83146;DHT22;73037;51.110;4.706;2024-02-15T00:02:38;12.70;82.80
83146;DHT22;73037;51.110;4.706;2024-02-15T00:05:04;12.70;82.80
83146;DHT22;73037;51.110;4.706;2024-02-15T00:07:30;12.70;82.40
83146;DHT22;73037;51.110;4.706;2024-02-15T00:09:56;12.70;82.80
83146;DHT22;73037;51.110;4.706;2024-02-15T00:12:21;12.70;83.40
83146;DHT22;73037;51.110;4.706;2024-02-15T00:14:47;12.70;82.80
83146;DHT22;73037;51.110;4.706;2024-02-15T00:17:13;12.70;82.30
83146;DHT22;73037;51.110;4.706;2024-02-15T00:19:39;12.70;82.40
83146;DHT22;73037;51.110;4.706;2024-02-15T00:22:07;12.70;82.60
83146;DHT22;73037;51.110;4.706;2024-02-15T00:24:33;12.70;82.60
83146;DHT22;73037;51.110;4.706;2024-02-15T00:26:58;12.70;82.50
83146;DHT22;73037;51.110;4.706;2024-02-15T00:29:24;12.60;81.60
83146;DHT22;73037;51.110;4.706;2024-02-15T00:31:51;12.60;82.30
83146;DHT22;73037;51.110;4.706;2024-02-15T00:34:17;12.60;82.60
83146;DHT22;73037;51.110;4.706;2024-02-15T00:36:43;12.60;82.80
83146;DHT22;73037;51.110;4.706;2024-02-15T00:39:11;12.60;82.90
83146;DHT22;73037;51.110;4.706;2024-02-15T00:41:39;12.60;82.60
83146;DHT22;73037;51.110;4.706;2024-02-15T00:44:09;12.70;82.50
83146;DHT22;73037;51.110;4.706;2024-02-15T00:46:36;12.70;82.20
83146;DHT22;73037;51.110;4.706;2024-02-15T00:49:02;12.70;82.40
83146;DHT22;73037;51.110;4.706;2024-02-15T00:51:29;12.60;82.10
83146;DHT22;73037;51.110;4.706;2024-02-15T00:53:54;12.70;82.80
83146;DHT22;73037;51.110;4.706;2024-02-15T00:56:21;12.70;83.20
83146;DHT22;73037;51.110;4.706;2024-02-15T00:58:47;12.70;82.20
83146;DHT22;73037;51.110;4.706;2024-02-15T01:01:14;12.60;81.70
83146;DHT22;73037;51.110;4.706;2024-02-15T01:03:40;12.70;82.60
83146;DHT22;73037;51.110;4.706;2024-02-15T01:06:06;12.70;82.80
83146;DHT22;73037;51.110;4.706;2024-02-15T01:08:32;12.70;82.30
83146;DHT22;73037;51.110;4.706;2024-02-15T01:10:58;12.70;82.20
83146;DHT22;73037;51.110;4.706;2024-02-15T01:13:24;12.70;82.50
83146;DHT22;73037;51.110;4.706;2024-02-15T01:15:50;12.70;81.80
83146;DHT22;73037;51.110;4.706;2024-02-15T01:18:16;12.70;82.20
83146;DHT22;73037;51.110;4.706;2024-02-15T01:20:42;12.60;82.40
83146;DHT22;73037;51.110;4.706;2024-02-15T01:23:07;12.60;82.80
83146;DHT22;73037;51.110;4.706;2024-02-15T01:25:33;12.60;81.90
83146;DHT22;73037;51.110;4.706;2024-02-15T01:27:59;12.50;82.50
83146;DHT22;73037;51.110;4.706;2024-02-15T01:30:27;12.50;81.90
83146;DHT22;73037;51.110;4.706;2024-02-15T01:32:54;12.50;82.40
83146;DHT22;73037;51.110;4.706;2024-02-15T01:35:19;12.50;82.50
83146;DHT22;73037;51.110;4.706;2024-02-15T01:37:45;12.50;82.70
83146;DHT22;73037;51.110;4.706;2024-02-15T01:40:11;12.50;82.80
83146;DHT22;73037;51.110;4.706;2024-02-15T01:42:38;12.50;81.90
83146;DHT22;73037;51.110;4.706;2024-02-15T01:45:05;12.50;82.30
83146;DHT22;73037;51.110;4.706;2024-02-15T01:47:31;12.50;82.30
83146;DHT22;73037;51.110;4.706;2024-02-15T01:49:57;12.50;82.00
83146;DHT22;73037;51.110;4.706;2024-02-15T01:52:23;12.60;81.90
83146;DHT22;73037;51.110;4.706;2024-02-15T01:54:51;12.60;81.40
83146;DHT22;73037;51.110;4.706;2024-02-15T01:57:19;12.70;82.00
83146;DHT22;73037;51.110;4.706;2024-02-15T01:59:46;12.70;82.70
83146;DHT22;73037;51.110;4.706;2024-02-15T02:02:14;12.70;81.00
83146;DHT22;73037;51.110;4.706;2024-02-15T02:04:42;12.70;81.80
83146;DHT22;73037;51.110;4.706;2024-02-15T02:07:08;12.70;81.60
83146;DHT22;73037;51.110;4.706;2024-02-15T02:09:34;12.70;81.20
83146;DHT22;73037;51.110;4.706;2024-02-15T02:12:00;12.70;81.90
83146;DHT22;73037;51.110;4.706;2024-02-15T02:14:25;12.70;81.90
83146;DHT22;73037;51.110;4.706;2024-02-15T02:16:51;12.70;81.20
83146;DHT22;73037;51.110;4.706;2024-02-15T02:19:17;12.70;80.80
83146;DHT22;73037;51.110;4.706;2024-02-15T02:21:43;12.70;81.40
83146;DHT22;73037;51.110;4.706;2024-02-15T02:24:13;12.80;81.60
83146;DHT22;73037;51.110;4.706;2024-02-15T02:26:40;12.80;81.90
83146;DHT22;73037;51.110;4.706;2024-02-15T02:29:06;12.80;81.10
83146;DHT22;73037;51.110;4.706;2024-02-15T02:31:35;12.80;80.10
83146;DHT22;73037;51.110;4.706;2024-02-15T02:34:01;12.80;81.50
83146;DHT22;73037;51.110;4.706;2024-02-15T02:36:27;12.80;81.50
83146;DHT22;73037;51.110;4.706;2024-02-15T02:38:55;12.80;81.60
83146;DHT22;73037;51.110;4.706;2024-02-15T02:41:20;12.80;81.40
83146;DHT22;73037;51.110;4.706;2024-02-15T02:43:46;12.80;81.80
83146;DHT22;73037;51.110;4.706;2024-02-15T02:46:12;12.80;82.00
83146;DHT22;73037;51.110;4.706;2024-02-15T02:48:38;12.80;82.00
83146;DHT22;73037;51.110;4.706;2024-02-15T02:51:06;12.70;81.20
83146;DHT22;73037;51.110;4.706;2024-02-15T02:53:32;12.70;81.90
83146;DHT22;73037;51.110;4.706;2024-02-15T02:55:57;12.70;80.70
83146;DHT22;73037;51.110;4.706;2024-02-15T02:58:23;12.70;81.50
83146;DHT22;73037;51.110;4.706;2024-02-15T03:00:49;12.70;82.30
83146;DHT22;73037;51.110;4.706;2024-02-15T03:03:15;12.70;82.30
83146;DHT22;73037;51.110;4.706;2024-02-15T03:05:41;12.70;82.70
83146;DHT22;73037;51.110;4.706;2024-02-15T03:08:13;12.60;82.30
83146;DHT22;73037;51.110;4.706;2024-02-15T03:10:39;12.50;82.80
83146;DHT22;73037;51.110;4.706;2024-02-15T03:13:06;12.50;82.80
83146;DHT22;73037;51.110;4.706;2024-02-15T03:15:33;12.50;83.30
83146;DHT22;73037;51.110;4.706;2024-02-15T03:17:59;12.50;83.20
83146;DHT22;73037;51.110;4.706;2024-02-15T03:20:25;12.50;83.40
83146;DHT22;73037;51.110;4.706;2024-02-15T03:22:55;12.50;83.50
83146;DHT22;73037;51.110;4.706;2024-02-15T03:25:21;12.50;83.40
83146;DHT22;73037;51.110;4.706;2024-02-15T03:27:51;12.50;83.20
83146;DHT22;73037;51.110;4.706;2024-02-15T03:30:18;12.50;83.40
83146;DHT22;73037;51.110;4.706;2024-02-15T03:32:47;12.50;83.40
83146;DHT22;73037;51.110;4.706;2024-02-15T03:35:17;12.50;83.40
83146;DHT22;73037;51.110;4.706;2024-02-15T03:37:43;12.50;83.10
83146;DHT22;73037;51.110;4.706;2024-02-15T03:40:09;12.30;83.00
83146;DHT22;73037;51.110;4.706;2024-02-15T03:42:36;12.30;83.30
83146;DHT22;73037;51.110;4.706;2024-02-15T03:45:05;12.30;83.00
83146;DHT22;73037;51.110;4.706;2024-02-15T03:47:34;12.30;83.70
83146;DHT22;73037;51.110;4.706;2024-02-15T03:50:04;12.30;83.80
83146;DHT22;73037;51.110;4.706;2024-02-15T03:52:30;12.30;83.60
83146;DHT22;73037;51.110;4.706;2024-02-15T03:54:56;12.40;83.40
83146;DHT22;73037;51.110;4.706;2024-02-15T03:57:26;12.30;83.10
83146;DHT22;73037;51.110;4.706;2024-02-15T03:59:52;12.30;83.10
83146;DHT22;73037;51.110;4.706;2024-02-15T04:02:23;12.40;83.70
83146;DHT22;73037;51.110;4.706;2024-02-15T04:04:52;12.30;83.40
83146;DHT22;73037;51.110;4.706;2024-02-15T04:07:20;12.30;83.20
83146;DHT22;73037;51.110;4.706;2024-02-15T04:09:47;12.30;83.60
83146;DHT22;73037;51.110;4.706;2024-02-15T04:12:12;12.30;83.30
83146;DHT22;73037;51.110;4.706;2024-02-15T04:14:40;12.40;83.50
83146;DHT22;73037;51.110;4.706;2024-02-15T04:17:06;12.30;83.50
83146;DHT22;73037;51.110;4.706;2024-02-15T04:19:32;12.30;83.40
83146;DHT22;73037;51.110;4.706;2024-02-15T04:21:58;12.30;83.60
83146;DHT22;73037;51.110;4.706;2024-02-15T04:24:25;12.30;83.60
83146;DHT22;73037;51.110;4.706;2024-02-15T04:26:51;12.30;83.20
83146;DHT22;73037;51.110;4.706;2024-02-15T04:29:17;12.30;83.20
83146;DHT22;73037;51.110;4.706;2024-02-15T04:31:46;12.30;83.50
83146;DHT22;73037;51.110;4.706;2024-02-15T04:34:17;12.40;83.80
83146;DHT22;73037;51.110;4.706;2024-02-15T04:36:47;12.50;83.60
83146;DHT22;73037;51.110;4.706;2024-02-15T04:39:19;12.40;83.20
83146;DHT22;73037;51.110;4.706;2024-02-15T04:41:53;12.40;83.10
83146;DHT22;73037;51.110;4.706;2024-02-15T04:44:20;12.30;82.80
83146;DHT22;73037;51.110;4.706;2024-02-15T04:46:48;12.30;83.60
83146;DHT22;73037;51.110;4.706;2024-02-15T04:49:15;12.30;83.20
83146;DHT22;73037;51.110;4.706;2024-02-15T04:51:40;12.40;83.60
83146;DHT22;73037;51.110;4.706;2024-02-15T04:54:10;12.40;83.30
83146;DHT22;73037;51.110;4.706;2024-02-15T04:56:42;12.40;83.50
83146;DHT22;73037;51.110;4.706;2024-02-15T04:59:10;12.40;83.40
83146;DHT22;73037;51.110;4.706;2024-02-15T05:01:43;12.50;83.70
83146;DHT22;73037;51.110;4.706;2024-02-15T05:04:10;12.40;83.50
83146;DHT22;73037;51.110;4.706;2024-02-15T05:06:35;12.50;83.70
83146;DHT22;73037;51.110;4.706;2024-02-15T05:09:02;12.40;83.60
83146;DHT22;73037;51.110;4.706;2024-02-15T05:11:33;12.30;83.30
83146;DHT22;73037;51.110;4.706;2024-02-15T05:14:04;12.30;83.80
83146;DHT22;73037;51.110;4.706;2024-02-15T05:16:33;12.30;83.90
83146;DHT22;73037;51.110;4.706;2024-02-15T05:18:59;12.30;83.90
83146;DHT22;73037;51.110;4.706;2024-02-15T05:21:25;12.30;83.70
83146;DHT22;73037;51.110;4.706;2024-02-15T05:23:51;12.30;84.20
83146;DHT22;73037;51.110;4.706;2024-02-15T05:26:18;12.30;84.10
83146;DHT22;73037;51.110;4.706;2024-02-15T05:28:49;12.20;83.80
83146;DHT22;73037;51.110;4.706;2024-02-15T05:31:18;12.20;84.30
83146;DHT22;73037;51.110;4.706;2024-02-15T05:33:46;12.30;84.60
83146;DHT22;73037;51.110;4.706;2024-02-15T05:36:17;12.30;84.50
83146;DHT22;73037;51.110;4.706;2024-02-15T05:38:49;12.40;84.40
83146;DHT22;73037;51.110;4.706;2024-02-15T05:41:17;12.30;84.30
83146;DHT22;73037;51.110;4.706;2024-02-15T05:43:43;12.40;84.50
83146;DHT22;73037;51.110;4.706;2024-02-15T05:46:09;12.40;84.30
83146;DHT22;73037;51.110;4.706;2024-02-15T05:48:36;12.30;83.90
83146;DHT22;73037;51.110;4.706;2024-02-15T05:51:03;12.30;84.20
83146;DHT22;73037;51.110;4.706;2024-02-15T05:53:29;12.30;84.20
83146;DHT22;73037;51.110;4.706;2024-02-15T05:55:56;12.30;84.30
83146;DHT22;73037;51.110;4.706;2024-02-15T05:58:24;12.30;84.40
83146;DHT22;73037;51.110;4.706;2024-02-15T06:00:50;12.30;84.30
83146;DHT22;73037;51.110;4.706;2024-02-15T06:03:16;12.20;83.70
83146;DHT22;73037;51.110;4.706;2024-02-15T06:05:42;12.20;84.00
83146;DHT22;73037;51.110;4.706;2024-02-15T06:08:09;12.20;84.20
83146;DHT22;73037;51.110;4.706;2024-02-15T06:10:35;12.20;84.20
83146;DHT22;73037;51.110;4.706;2024-02-15T06:13:00;12.20;84.40
83146;DHT22;73037;51.110;4.706;2024-02-15T06:15:26;12.20;84.30
83146;DHT22;73037;51.110;4.706;2024-02-15T06:17:52;12.20;83.90
83146;DHT22;73037;51.110;4.706;2024-02-15T06:20:18;12.30;84.30
83146;DHT22;73037;51.110;4.706;2024-02-15T06:22:45;12.30;84.10
83146;DHT22;73037;51.110;4.706;2024-02-15T06:25:12;12.30;84.20
83146;DHT22;73037;51.110;4.706;2024-02-15T06:27:38;12.20;83.70
83146;DHT22;73037;51.110;4.706;2024-02-15T06:30:10;12.20;83.70
83146;DHT22;73037;51.110;4.706;2024-02-15T06:32:54;12.20;83.70
83146;DHT22;73037;51.110;4.706;2024-02-15T06:35:38;12.20;83.90
83146;DHT22;73037;51.110;4.706;2024-02-15T06:38:23;12.20;83.50
83146;DHT22;73037;51.110;4.706;2024-02-15T06:41:08;12.20;83.80
83146;DHT22;73037;51.110;4.706;2024-02-15T06:43:34;12.20;83.70
83146;DHT22;73037;51.110;4.706;2024-02-15T06:46:01;12.20;84.00
83146;DHT22;73037;51.110;4.706;2024-02-15T06:48:27;12.30;83.60
83146;DHT22;73037;51.110;4.706;2024-02-15T06:50:52;12.20;83.60
83146;DHT22;73037;51.110;4.706;2024-02-15T06:53:18;12.20;83.80
83146;DHT22;73037;51.110;4.706;2024-02-15T06:55:46;12.20;83.90
83146;DHT22;73037;51.110;4.706;2024-02-15T06:58:15;12.20;83.20
83146;DHT22;73037;51.110;4.706;2024-02-15T07:00:42;12.20;83.50
83146;DHT22;73037;51.110;4.706;2024-02-15T07:03:08;12.20;83.60
83146;DHT22;73037;51.110;4.706;2024-02-15T07:05:34;12.20;83.70
83146;DHT22;73037;51.110;4.706;2024-02-15T07:08:01;12.20;83.20
83146;DHT22;73037;51.110;4.706;2024-02-15T07:10:26;12.20;83.20
83146;DHT22;73037;51.110;4.706;2024-02-15T07:12:52;12.10;83.00
83146;DHT22;73037;51.110;4.706;2024-02-15T07:15:18;12.10;83.50
83146;DHT22;73037;51.110;4.706;2024-02-15T07:17:43;12.10;83.60
83146;DHT22;73037;51.110;4.706;2024-02-15T07:20:12;12.20;84.10
83146;DHT22;73037;51.110;4.706;2024-02-15T07:22:43;12.20;83.80
83146;DHT22;73037;51.110;4.706;2024-02-15T07:25:09;12.20;83.40
83146;DHT22;73037;51.110;4.706;2024-02-15T07:27:35;12.20;83.90
83146;DHT22;73037;51.110;4.706;2024-02-15T07:30:01;12.30;83.40
83146;DHT22;73037;51.110;4.706;2024-02-15T07:32:28;12.30;83.70
83146;DHT22;73037;51.110;4.706;2024-02-15T07:34:57;12.30;83.30
83146;DHT22;73037;51.110;4.706;2024-02-15T07:37:22;12.30;83.20
83146;DHT22;73037;51.110;4.706;2024-02-15T07:39:52;12.20;83.20
83146;DHT22;73037;51.110;4.706;2024-02-15T07:42:17;12.20;82.50
83146;DHT22;73037;51.110;4.706;2024-02-15T07:44:43;12.20;82.60
83146;DHT22;73037;51.110;4.706;2024-02-15T07:47:09;12.20;82.30
83146;DHT22;73037;51.110;4.706;2024-02-15T07:49:36;12.20;82.40
83146;DHT22;73037;51.110;4.706;2024-02-15T07:52:02;12.20;82.30
83146;DHT22;73037;51.110;4.706;2024-02-15T07:54:30;12.20;82.70
83146;DHT22;73037;51.110;4.706;2024-02-15T07:56:56;12.30;83.00
83146;DHT22;73037;51.110;4.706;2024-02-15T07:59:23;12.30;83.20
83146;DHT22;73037;51.110;4.706;2024-02-15T08:01:49;12.40;82.30
83146;DHT22;73037;51.110;4.706;2024-02-15T08:04:19;12.50;82.20
83146;DHT22;73037;51.110;4.706;2024-02-15T08:06:46;12.50;81.50
83146;DHT22;73037;51.110;4.706;2024-02-15T08:09:15;12.50;82.20
83146;DHT22;73037;51.110;4.706;2024-02-15T08:11:44;12.50;81.50
83146;DHT22;73037;51.110;4.706;2024-02-15T08:14:09;12.50;80.50
83146;DHT22;73037;51.110;4.706;2024-02-15T08:16:37;12.50;81.30
83146;DHT22;73037;51.110;4.706;2024-02-15T08:19:06;12.50;80.10
83146;DHT22;73037;51.110;4.706;2024-02-15T08:21:33;12.50;79.20
83146;DHT22;73037;51.110;4.706;2024-02-15T08:24:01;12.50;81.20
83146;DHT22;73037;51.110;4.706;2024-02-15T08:26:36;12.50;80.80
83146;DHT22;73037;51.110;4.706;2024-02-15T08:29:03;12.60;81.30
83146;DHT22;73037;51.110;4.706;2024-02-15T08:31:29;12.70;79.30
83146;DHT22;73037;51.110;4.706;2024-02-15T08:34:00;12.70;80.50
83146;DHT22;73037;51.110;4.706;2024-02-15T08:36:26;12.80;81.40
83146;DHT22;73037;51.110;4.706;2024-02-15T08:38:52;12.80;80.90
83146;DHT22;73037;51.110;4.706;2024-02-15T08:41:17;12.80;81.30
83146;DHT22;73037;51.110;4.706;2024-02-15T08:43:45;12.90;81.20
83146;DHT22;73037;51.110;4.706;2024-02-15T08:46:14;12.90;81.80
83146;DHT22;73037;51.110;4.706;2024-02-15T08:48:40;13.00;80.50
83146;DHT22;73037;51.110;4.706;2024-02-15T08:51:06;13.00;81.00
83146;DHT22;73037;51.110;4.706;2024-02-15T08:53:34;13.00;79.90
83146;DHT22;73037;51.110;4.706;2024-02-15T08:56:03;13.10;81.40
83146;DHT22;73037;51.110;4.706;2024-02-15T08:58:29;13.10;81.10
83146;DHT22;73037;51.110;4.706;2024-02-15T09:00:56;13.30;81.80
83146;DHT22;73037;51.110;4.706;2024-02-15T09:03:22;13.30;80.80
83146;DHT22;73037;51.110;4.706;2024-02-15T09:05:47;13.50;80.50
83146;DHT22;73037;51.110;4.706;2024-02-15T09:08:13;13.50;80.40
83146;DHT22;73037;51.110;4.706;2024-02-15T09:10:41;13.60;80.50
83146;DHT22;73037;51.110;4.706;2024-02-15T09:13:08;13.60;80.50
83146;DHT22;73037;51.110;4.706;2024-02-15T09:15:33;13.80;81.20
83146;DHT22;73037;51.110;4.706;2024-02-15T09:17:59;13.90;80.70
83146;DHT22;73037;51.110;4.706;2024-02-15T09:20:25;13.90;81.30
83146;DHT22;73037;51.110;4.706;2024-02-15T09:22:54;13.90;79.60
83146;DHT22;73037;51.110;4.706;2024-02-15T09:25:21;14.00;80.30
83146;DHT22;73037;51.110;4.706;2024-02-15T09:27:50;14.10;79.00
83146;DHT22;73037;51.110;4.706;2024-02-15T09:30:17;14.10;78.60
83146;DHT22;73037;51.110;4.706;2024-02-15T09:32:43;14.20;80.70
83146;DHT22;73037;51.110;4.706;2024-02-15T09:35:10;14.20;78.20
83146;DHT22;73037;51.110;4.706;2024-02-15T09:37:45;14.30;78.90
83146;DHT22;73037;51.110;4.706;2024-02-15T09:40:12;14.30;79.00
83146;DHT22;73037;51.110;4.706;2024-02-15T09:42:38;14.40;80.40
83146;DHT22;73037;51.110;4.706;2024-02-15T09:45:06;14.50;80.10
83146;DHT22;73037;51.110;4.706;2024-02-15T09:47:35;14.50;78.40
83146;DHT22;73037;51.110;4.706;2024-02-15T09:52:38;14.50;77.50
83146;DHT22;73037;51.110;4.706;2024-02-15T09:55:04;14.50;78.60
83146;DHT22;73037;51.110;4.706;2024-02-15T09:57:31;14.50;77.20
83146;DHT22;73037;51.110;4.706;2024-02-15T10:00:00;14.60;78.60
83146;DHT22;73037;51.110;4.706;2024-02-15T10:02:29;14.70;76.40
83146;DHT22;73037;51.110;4.706;2024-02-15T10:04:56;14.70;78.70
83146;DHT22;73037;51.110;4.706;2024-02-15T10:07:25;14.60;77.80
83146;DHT22;73037;51.110;4.706;2024-02-15T10:09:52;14.70;78.50
83146;DHT22;73037;51.110;4.706;2024-02-15T10:12:18;14.70;76.40
83146;DHT22;73037;51.110;4.706;2024-02-15T10:14:50;14.70;77.00
83146;DHT22;73037;51.110;4.706;2024-02-15T10:17:18;14.80;76.10
83146;DHT22;73037;51.110;4.706;2024-02-15T10:19:45;14.90;75.70
83146;DHT22;73037;51.110;4.706;2024-02-15T10:22:12;14.90;74.20
83146;DHT22;73037;51.110;4.706;2024-02-15T10:24:40;14.90;75.50
83146;DHT22;73037;51.110;4.706;2024-02-15T10:27:06;14.90;77.50
83146;DHT22;73037;51.110;4.706;2024-02-15T10:29:35;15.00;77.50
83146;DHT22;73037;51.110;4.706;2024-02-15T10:32:03;15.00;72.60
83146;DHT22;73037;51.110;4.706;2024-02-15T10:34:31;15.00;75.00
83146;DHT22;73037;51.110;4.706;2024-02-15T10:37:16;15.00;76.40
83146;DHT22;73037;51.110;4.706;2024-02-15T10:39:42;15.00;73.50
83146;DHT22;73037;51.110;4.706;2024-02-15T10:42:08;15.00;72.30
83146;DHT22;73037;51.110;4.706;2024-02-15T10:44:38;14.90;75.80
83146;DHT22;73037;51.110;4.706;2024-02-15T10:47:04;14.90;73.90
83146;DHT22;73037;51.110;4.706;2024-02-15T10:49:33;15.00;77.10
83146;DHT22;73037;51.110;4.706;2024-02-15T10:52:00;15.00;76.10
83146;DHT22;73037;51.110;4.706;2024-02-15T10:54:54;15.10;73.20
83146;DHT22;73037;51.110;4.706;2024-02-15T10:57:24;15.10;73.30
83146;DHT22;73037;51.110;4.706;2024-02-15T10:59:55;15.10;73.30
83146;DHT22;73037;51.110;4.706;2024-02-15T11:02:27;15.10;73.90
83146;DHT22;73037;51.110;4.706;2024-02-15T11:04:58;15.10;71.20
83146;DHT22;73037;51.110;4.706;2024-02-15T11:07:28;15.20;73.80
83146;DHT22;73037;51.110;4.706;2024-02-15T11:09:55;15.20;73.50
83146;DHT22;73037;51.110;4.706;2024-02-15T11:12:24;15.20;73.30
83146;DHT22;73037;51.110;4.706;2024-02-15T11:14:54;15.40;70.90
83146;DHT22;73037;51.110;4.706;2024-02-15T11:20:09;15.40;72.10
83146;DHT22;73037;51.110;4.706;2024-02-15T11:22:40;15.60;71.90
83146;DHT22;73037;51.110;4.706;2024-02-15T11:25:07;15.60;68.80
83146;DHT22;73037;51.110;4.706;2024-02-15T11:27:43;15.80;71.10
83146;DHT22;73037;51.110;4.706;2024-02-15T11:30:09;15.90;69.90
83146;DHT22;73037;51.110;4.706;2024-02-15T11:32:41;16.00;70.80
83146;DHT22;73037;51.110;4.706;2024-02-15T11:35:12;16.10;73.60
83146;DHT22;73037;51.110;4.706;2024-02-15T11:40:21;16.30;71.40
83146;DHT22;73037;51.110;4.706;2024-02-15T11:42:59;16.40;69.60
83146;DHT22;73037;51.110;4.706;2024-02-15T11:45:26;16.40;67.20
83146;DHT22;73037;51.110;4.706;2024-02-15T11:47:57;16.50;68.70
83146;DHT22;73037;51.110;4.706;2024-02-15T11:50:23;16.60;70.50
83146;DHT22;73037;51.110;4.706;2024-02-15T11:52:50;16.70;67.50
83146;DHT22;73037;51.110;4.706;2024-02-15T11:55:22;16.70;68.80
83146;DHT22;73037;51.110;4.706;2024-02-15T11:57:57;16.70;65.80
83146;DHT22;73037;51.110;4.706;2024-02-15T12:00:31;16.80;68.20
83146;DHT22;73037;51.110;4.706;2024-02-15T12:03:16;16.80;66.60
83146;DHT22;73037;51.110;4.706;2024-02-15T12:06:00;16.80;66.40
83146;DHT22;73037;51.110;4.706;2024-02-15T12:08:49;16.90;65.50
83146;DHT22;73037;51.110;4.706;2024-02-15T12:11:34;17.00;67.30
83146;DHT22;73037;51.110;4.706;2024-02-15T12:14:18;17.10;65.90
83146;DHT22;73037;51.110;4.706;2024-02-15T12:17:06;17.20;64.60
83146;DHT22;73037;51.110;4.706;2024-02-15T12:19:51;17.10;64.40
83146;DHT22;73037;51.110;4.706;2024-02-15T12:22:28;17.00;64.60
83146;DHT22;73037;51.110;4.706;2024-02-15T12:24:57;17.00;65.30
83146;DHT22;73037;51.110;4.706;2024-02-15T12:27:24;17.20;67.20
83146;DHT22;73037;51.110;4.706;2024-02-15T12:29:58;17.20;65.80
83146;DHT22;73037;51.110;4.706;2024-02-15T12:32:26;17.30;66.50
83146;DHT22;73037;51.110;4.706;2024-02-15T12:34:52;17.40;65.60
83146;DHT22;73037;51.110;4.706;2024-02-15T12:37:20;17.40;63.70
83146;DHT22;73037;51.110;4.706;2024-02-15T12:39:49;17.40;65.20
83146;DHT22;73037;51.110;4.706;2024-02-15T12:42:16;17.30;69.90
83146;DHT22;73037;51.110;4.706;2024-02-15T12:44:46;17.20;66.70
83146;DHT22;73037;51.110;4.706;2024-02-15T12:47:20;17.20;65.10
83146;DHT22;73037;51.110;4.706;2024-02-15T12:49:45;17.20;69.90
83146;DHT22;73037;51.110;4.706;2024-02-15T12:52:37;17.20;63.90
83146;DHT22;73037;51.110;4.706;2024-02-15T12:55:21;17.10;67.00
83146;DHT22;73037;51.110;4.706;2024-02-15T12:57:51;17.00;64.00
83146;DHT22;73037;51.110;4.706;2024-02-15T13:00:27;17.00;62.80
83146;DHT22;73037;51.110;4.706;2024-02-15T13:02:58;16.80;67.20
83146;DHT22;73037;51.110;4.706;2024-02-15T13:05:27;16.80;64.40
83146;DHT22;73037;51.110;4.706;2024-02-15T13:07:54;16.70;65.10
83146;DHT22;73037;51.110;4.706;2024-02-15T13:10:36;16.70;64.60
83146;DHT22;73037;51.110;4.706;2024-02-15T13:13:02;16.60;65.10
83146;DHT22;73037;51.110;4.706;2024-02-15T13:15:28;16.60;65.30
83146;DHT22;73037;51.110;4.706;2024-02-15T13:17:58;16.60;70.30
83146;DHT22;73037;51.110;4.706;2024-02-15T13:20:24;16.60;65.30
83146;DHT22;73037;51.110;4.706;2024-02-15T13:23:02;16.60;65.90
83146;DHT22;73037;51.110;4.706;2024-02-15T13:25:37;16.70;65.10
83146;DHT22;73037;51.110;4.706;2024-02-15T13:28:05;16.80;64.10
83146;DHT22;73037;51.110;4.706;2024-02-15T13:30:31;16.80;63.30
83146;DHT22;73037;51.110;4.706;2024-02-15T13:32:56;16.90;64.20
83146;DHT22;73037;51.110;4.706;2024-02-15T13:35:22;17.00;63.50
83146;DHT22;73037;51.110;4.706;2024-02-15T13:37:55;17.10;65.50
83146;DHT22;73037;51.110;4.706;2024-02-15T13:40:24;17.20;62.80
83146;DHT22;73037;51.110;4.706;2024-02-15T13:42:52;17.10;64.60
83146;DHT22;73037;51.110;4.706;2024-02-15T13:45:22;17.10;63.50
83146;DHT22;73037;51.110;4.706;2024-02-15T13:47:49;17.00;62.30
83146;DHT22;73037;51.110;4.706;2024-02-15T13:50:21;17.00;62.50
83146;DHT22;73037;51.110;4.706;2024-02-15T13:52:47;17.00;62.30
83146;DHT22;73037;51.110;4.706;2024-02-15T13:55:14;17.00;63.40
83146;DHT22;73037;51.110;4.706;2024-02-15T13:57:41;17.00;62.40
83146;DHT22;73037;51.110;4.706;2024-02-15T14:00:11;17.00;63.60
83146;DHT22;73037;51.110;4.706;2024-02-15T14:02:50;17.00;63.50
83146;DHT22;73037;51.110;4.706;2024-02-15T14:05:20;17.00;62.40
83146;DHT22;73037;51.110;4.706;2024-02-15T14:07:55;17.00;61.90
83146;DHT22;73037;51.110;4.706;2024-02-15T14:10:25;17.00;61.80
83146;DHT22;73037;51.110;4.706;2024-02-15T14:12:53;17.00;62.00
83146;DHT22;73037;51.110;4.706;2024-02-15T14:15:21;17.00;62.00
83146;DHT22;73037;51.110;4.706;2024-02-15T14:17:47;17.00;61.50
83146;DHT22;73037;51.110;4.706;2024-02-15T14:20:13;17.10;62.70
83146;DHT22;73037;51.110;4.706;2024-02-15T14:22:45;17.20;62.20
83146;DHT22;73037;51.110;4.706;2024-02-15T14:25:14;17.20;60.50
83146;DHT22;73037;51.110;4.706;2024-02-15T14:27:40;17.10;61.50
83146;DHT22;73037;51.110;4.706;2024-02-15T14:30:08;17.10;61.90
83146;DHT22;73037;51.110;4.706;2024-02-15T14:32:52;17.10;60.90
83146;DHT22;73037;51.110;4.706;2024-02-15T14:35:31;17.10;60.50
83146;DHT22;73037;51.110;4.706;2024-02-15T14:38:00;17.10;61.20
83146;DHT22;73037;51.110;4.706;2024-02-15T14:40:28;17.10;62.70
83146;DHT22;73037;51.110;4.706;2024-02-15T14:42:54;17.10;62.00
83146;DHT22;73037;51.110;4.706;2024-02-15T14:45:20;17.00;61.80
83146;DHT22;73037;51.110;4.706;2024-02-15T14:47:46;17.00;62.20
83146;DHT22;73037;51.110;4.706;2024-02-15T14:50:12;17.00;61.90
83146;DHT22;73037;51.110;4.706;2024-02-15T14:52:39;16.90;60.50
83146;DHT22;73037;51.110;4.706;2024-02-15T14:55:05;16.90;61.10
83146;DHT22;73037;51.110;4.706;2024-02-15T14:57:33;16.90;61.50
83146;DHT22;73037;51.110;4.706;2024-02-15T15:00:00;16.90;63.20
83146;DHT22;73037;51.110;4.706;2024-02-15T15:02:26;16.90;61.10
83146;DHT22;73037;51.110;4.706;2024-02-15T15:04:51;16.80;61.20
83146;DHT22;73037;51.110;4.706;2024-02-15T15:07:44;16.80;61.10
83146;DHT22;73037;51.110;4.706;2024-02-15T15:10:28;16.70;60.40
83146;DHT22;73037;51.110;4.706;2024-02-15T15:13:12;16.60;60.70
83146;DHT22;73037;51.110;4.706;2024-02-15T15:15:39;16.60;62.10
83146;DHT22;73037;51.110;4.706;2024-02-15T15:18:06;16.50;63.30
83146;DHT22;73037;51.110;4.706;2024-02-15T15:20:33;16.50;62.50
83146;DHT22;73037;51.110;4.706;2024-02-15T15:23:00;16.50;62.50
83146;DHT22;73037;51.110;4.706;2024-02-15T15:25:26;16.50;62.00
83146;DHT22;73037;51.110;4.706;2024-02-15T15:27:54;16.50;61.90
83146;DHT22;73037;51.110;4.706;2024-02-15T15:30:24;16.50;62.80
83146;DHT22;73037;51.110;4.706;2024-02-15T15:32:49;16.40;61.90
83146;DHT22;73037;51.110;4.706;2024-02-15T15:35:16;16.40;62.50
83146;DHT22;73037;51.110;4.706;2024-02-15T15:37:47;16.40;63.00
83146;DHT22;73037;51.110;4.706;2024-02-15T15:40:13;16.30;62.40
83146;DHT22;73037;51.110;4.706;2024-02-15T15:42:42;16.30;62.60
83146;DHT22;73037;51.110;4.706;2024-02-15T15:45:11;16.20;63.20